X  ZamknijMetar - Lotnicze dane pogodowe     EPKT Katowice International

Temperatura

12°C Temperatura

11°C Punkt rosy

94% Wilgotność



Wiatr

11 km/h

 7 MPH

 3 m/s

 6 KTS



310°
NV
Obecne warunki

Mist Mist
Ciśnienie 998.92 (hPa) - 29.5 (in)
Widoczność 2.7 (mi) - 4.3 (km)
Lotnisko
Kod lotniska EPKT

Lokalizacja Katowice International 23 (km)

Metar:
EPKT 131500Z 31006KT 280V340 4300 BR BKN002 12/11 Q0999

Czas: 13-11-2019 16:00